Time;durP1;ratioP1;P1;durP2;ratioP2;P2;SDS_P1;SDS_P2;PMS_P1;PMS_P2;Temp;Humidity;BMP_temperature;BMP_pressure;BME280_temperature;BME280_humidity;BME280_pressure;Samples;Min_cycle;Max_cycle;Signal;HPM_P1;HPM_P2
2022/01/21 00:00:55;;;;;;;25.40;12.60;;;;;;;-0.89;67.54;98220.66;5091109;28;20035;-66
2022/01/21 00:03:21;;;;;;;27.27;13.15;;;;;;;-0.91;67.30;98212.00;5090037;28;20119;-67
2022/01/21 00:05:47;;;;;;;22.35;12.10;;;;;;;-0.97;67.86;98213.22;5090502;28;20111;-67
2022/01/21 00:08:12;;;;;;;28.90;14.13;;;;;;;-0.97;67.45;98210.59;5090755;28;20035;-71
2022/01/21 00:10:38;;;;;;;27.38;13.10;;;;;;;-1.09;67.36;98172.75;5091207;28;20460;-65
2022/01/21 00:13:13;;;;;;;28.90;14.07;;;;;;;-0.99;67.70;98216.84;5085956;28;20115;-64
2022/01/21 00:15:39;;;;;;;27.75;13.73;;;;;;;-0.99;67.60;98216.84;5090397;28;20093;-65
2022/01/21 00:18:05;;;;;;;26.17;13.13;;;;;;;-1.02;67.86;98195.09;5090411;28;20024;-65
2022/01/21 00:31:26;;;;;;;26.70;13.50;;;;;;;-1.10;66.94;98162.31;5093292;28;20025;-69
2022/01/21 00:33:51;;;;;;;28.70;13.75;;;;;;;-0.93;67.42;98219.97;5094168;28;20077;-67
2022/01/21 00:36:17;;;;;;;26.33;13.02;;;;;;;-0.90;67.56;98218.97;5093495;28;20038;-68
2022/01/21 00:38:43;;;;;;;26.60;13.50;;;;;;;-0.92;66.70;98200.66;5094139;28;20089;-68
2022/01/21 00:41:10;;;;;;;27.92;14.10;;;;;;;-0.94;66.75;98217.47;5094523;28;20521;-66
2022/01/21 00:43:44;;;;;;;25.23;12.50;;;;;;;-0.99;67.27;98198.47;5094082;28;20028;-66
2022/01/21 00:46:13;;;;;;;31.80;14.30;;;;;;;-0.83;66.08;98199.25;5093464;28;20494;-69
2022/01/21 00:48:39;;;;;;;27.52;14.05;;;;;;;-0.93;66.47;98196.31;5094097;28;20043;-65
2022/01/21 00:51:05;;;;;;;24.77;12.70;;;;;;;-1.15;66.60;98173.13;5092621;28;20032;-65
2022/01/21 00:53:31;;;;;;;25.08;12.63;;;;;;;-0.99;66.44;98203.72;5092200;28;20032;-72
2022/01/21 00:55:57;;;;;;;28.58;13.15;;;;;;;-0.98;66.77;98202.78;5093410;28;20127;-77
2022/01/21 00:58:22;;;;;;;27.73;13.75;;;;;;;-0.99;66.93;98204.59;5093457;28;20329;-67
2022/01/21 01:00:48;;;;;;;28.30;14.35;;;;;;;-1.01;66.58;98207.28;5093241;28;20150;-66
2022/01/21 01:03:14;;;;;;;26.10;13.10;;;;;;;-1.18;66.16;98192.53;5093416;28;20036;-66
2022/01/21 01:05:40;;;;;;;25.85;13.23;;;;;;;-1.01;66.37;98207.28;5093206;28;20050;-64
2022/01/21 01:08:06;;;;;;;27.50;13.95;;;;;;;-1.00;66.94;98218.66;5092242;28;20028;-66
2022/01/21 01:11:00;;;;;;;26.60;13.02;;;;;;;-0.96;66.43;98212.28;5091598;28;20024;-66
2022/01/21 01:21:30;;;;;;;29.10;13.18;;;;;;;-0.89;66.07;98213.59;5093384;28;20438;-68
2022/01/21 01:27:35;;;;;;;28.88;13.30;;;;;;;-0.99;66.25;98193.22;5092285;28;20487;-66
2022/01/21 01:29:30;;;;;;;30.08;13.98;;;;;;;-0.90;66.65;98211.06;5093318;28;20036;-66
2022/01/21 01:31:56;;;;;;;26.23;13.13;;;;;;;-1.19;66.46;98161.13;5091386;28;20035;-67
2022/01/21 01:34:22;;;;;;;27.98;13.70;;;;;;;-0.87;66.13;98216.97;5091389;28;20021;-65
2022/01/21 01:36:48;;;;;;;30.88;14.05;;;;;;;-0.89;66.02;98212.75;5092931;28;20035;-65
2022/01/21 01:39:40;;;;;;;26.38;13.20;;;;;;;-0.87;65.85;98226.66;5093340;28;20032;-67
2022/01/21 01:50:05;;;;;;;26.33;13.10;;;;;;;-0.90;66.25;98217.16;5092529;28;20073;-66
2022/01/21 01:52:30;;;;;;;24.95;12.80;;;;;;;-0.88;65.51;98209.19;5092076;28;20092;-68
2022/01/21 01:54:56;;;;;;;27.80;13.13;;;;;;;-0.88;66.09;98210.03;5092736;28;20028;-66
2022/01/21 01:57:22;;;;;;;26.80;13.95;;;;;;;-0.97;65.68;98192.19;5092888;28;20062;-66
2022/01/21 01:59:48;;;;;;;26.20;13.30;;;;;;;-0.93;65.79;98201.59;5092111;28;20460;-65
2022/01/21 02:02:16;;;;;;;26.83;13.48;;;;;;;-0.98;66.09;98192.28;5092114;28;20115;-65
2022/01/21 02:04:43;;;;;;;24.60;12.82;;;;;;;-0.93;65.90;98198.13;5092564;28;20032;-66
2022/01/21 02:07:09;;;;;;;26.52;12.75;;;;;;;-0.97;65.62;98191.34;5092809;28;20043;-67
2022/01/21 02:09:36;;;;;;;21.13;10.60;;;;;;;-1.03;65.45;98168.94;5092204;28;20401;-66
2022/01/21 02:12:03;;;;;;;26.08;13.93;;;;;;;-0.95;66.06;98197.38;5090905;28;20032;-74
2022/01/21 02:14:33;;;;;;;25.25;12.30;;;;;;;-1.03;66.07;98203.91;5074337;28;20511;-66
2022/01/21 02:22:11;;;;;;;24.08;12.50;;;;;;;-1.04;65.81;98215.34;5070349;28;20057;-67
2022/01/21 02:27:12;;;;;;;27.02;12.63;;;;;;;-1.07;66.42;98194.53;5070598;28;20036;-67
2022/01/21 02:29:46;;;;;;;26.33;12.68;;;;;;;-1.05;66.46;98199.69;5071367;28;20051;-67
2022/01/21 02:32:12;;;;;;;25.45;13.50;;;;;;;-1.03;66.55;98197.81;5071349;28;20051;-66
2022/01/21 02:34:38;;;;;;;27.15;14.00;;;;;;;-1.10;66.66;98189.47;5070487;28;20452;-67
2022/01/21 02:37:04;;;;;;;24.30;13.25;;;;;;;-1.05;66.43;98194.44;5071886;28;20469;-68
2022/01/21 02:39:30;;;;;;;25.48;13.48;;;;;;;-1.11;66.34;98177.25;5071495;28;20436;-66
2022/01/21 02:41:55;;;;;;;24.70;12.85;;;;;;;-0.98;65.55;98198.38;5071162;28;20033;-67
2022/01/21 02:44:22;;;;;;;27.63;12.55;;;;;;;-1.13;66.38;98180.91;5053019;28;20087;-65
2022/01/21 02:46:55;;;;;;;26.05;12.40;;;;;;;-1.10;66.72;98192.09;5071190;28;20568;-66
2022/01/21 02:49:20;;;;;;;26.52;13.50;;;;;;;-1.08;66.72;98179.69;5070998;28;20074;-66
2022/01/21 02:51:46;;;;;;;25.83;12.57;;;;;;;-1.10;66.44;98186.81;5071190;28;20514;-68
2022/01/21 02:54:12;;;;;;;26.75;12.48;;;;;;;-1.07;66.80;98186.63;5071256;28;20036;-67
2022/01/21 02:56:39;;;;;;;26.75;13.30;;;;;;;-1.09;67.01;98174.53;5071139;28;20365;-67
2022/01/21 02:59:07;;;;;;;22.98;12.32;;;;;;;-1.07;66.73;98181.38;5070169;28;20102;-69
2022/01/21 03:01:35;;;;;;;28.15;13.77;;;;;;;-1.11;66.74;98173.78;5071133;28;20033;-66
2022/01/21 03:04:03;;;;;;;27.52;13.75;;;;;;;-1.16;66.67;98168.81;5070289;28;20056;-65
2022/01/21 03:06:28;;;;;;;29.17;13.40;;;;;;;-1.19;66.92;98164.56;5070615;28;20087;-67
2022/01/21 03:08:57;;;;;;;25.42;12.60;;;;;;;-1.10;66.37;98171.06;5070747;28;20390;-67
2022/01/21 03:11:24;;;;;;;24.58;12.73;;;;;;;-1.18;66.82;98166.25;5070088;28;20350;-66
2022/01/21 03:13:50;;;;;;;27.15;13.13;;;;;;;-1.45;67.07;98129.34;5069679;28;20365;-67
2022/01/21 03:16:15;;;;;;;24.42;12.30;;;;;;;-1.31;66.96;98158.28;5070815;28;20082;-66
2022/01/21 03:18:42;;;;;;;27.13;13.55;;;;;;;-1.29;67.27;98166.06;5071276;28;20020;-68
2022/01/21 03:21:10;;;;;;;23.13;12.63;;;;;;;-1.25;67.06;98164.09;5070663;28;20025;-66
2022/01/21 03:23:37;;;;;;;26.33;13.32;;;;;;;-1.22;67.21;98166.53;5069552;28;20065;-64
2022/01/21 03:26:03;;;;;;;26.73;13.98;;;;;;;-1.30;67.06;98153.88;5071507;28;20037;-67
2022/01/21 03:28:28;;;;;;;24.63;12.90;;;;;;;-1.26;67.38;98159.78;5070570;28;20131;-66
2022/01/21 03:30:56;;;;;;;25.33;12.90;;;;;;;-1.27;66.71;98165.97;5070795;28;20021;-66
2022/01/21 03:33:24;;;;;;;26.65;12.85;;;;;;;-1.32;66.91;98151.31;5071168;28;20047;-67
2022/01/21 03:35:51;;;;;;;27.45;13.98;;;;;;;-1.35;67.11;98162.00;5070912;28;20043;-67
2022/01/21 03:38:18;;;;;;;27.73;13.40;;;;;;;-1.37;67.20;98144.66;5069756;28;20111;-67
2022/01/21 03:40:44;;;;;;;28.05;13.55;;;;;;;-1.38;66.71;98142.97;5071000;28;20028;-67
2022/01/21 03:43:12;;;;;;;31.67;14.85;;;;;;;-1.50;66.73;98134.88;5053137;28;20035;-69
2022/01/21 03:45:38;;;;;;;28.38;14.25;;;;;;;-1.49;66.22;98144.44;5068870;28;20068;-68
2022/01/21 03:48:04;;;;;;;29.17;15.23;;;;;;;-1.48;67.22;98158.41;5070625;28;20047;-68
2022/01/21 03:50:32;;;;;;;28.73;14.50;;;;;;;-1.60;67.29;98145.06;5070915;28;20071;-67
2022/01/21 03:52:59;;;;;;;31.75;15.55;;;;;;;-1.52;67.04;98165.63;5071149;28;20032;-67
2022/01/21 03:55:25;;;;;;;31.73;14.43;;;;;;;-1.74;66.97;98122.25;5071215;28;20032;-68
2022/01/21 03:57:50;;;;;;;32.08;14.70;;;;;;;-1.55;66.80;98147.44;5074121;28;20417;-69
2022/01/21 04:00:25;;;;;;;31.20;15.45;;;;;;;-1.47;66.51;98147.81;5074469;28;20397;-66
2022/01/21 04:02:52;;;;;;;31.60;15.25;;;;;;;-1.48;67.12;98142.66;5056778;28;20464;-68
2022/01/21 04:05:18;;;;;;;27.92;14.50;;;;;;;-1.47;66.86;98149.59;5072573;28;20150;-66
2022/01/21 04:07:43;;;;;;;29.63;13.02;;;;;;;-1.43;66.49;98171.25;5074108;28;20075;-68
2022/01/21 04:10:10;;;;;;;28.45;14.82;;;;;;;-1.46;66.85;98170.50;5074511;28;20492;-66
2022/01/21 04:12:35;;;;;;;31.35;16.38;;;;;;;-1.52;66.13;98151.66;5074783;28;20020;-67
2022/01/21 04:15:01;;;;;;;37.22;15.23;;;;;;;-1.53;66.58;98169.19;5076829;28;20362;-66
2022/01/21 04:17:27;;;;;;;36.97;17.15;;;;;;;-1.56;66.49;98158.00;5073750;28;20133;-66
2022/01/21 04:19:53;;;;;;;36.00;17.67;;;;;;;-1.51;66.56;98169.94;5073000;28;20032;-67
2022/01/21 04:22:19;;;;;;;32.78;16.52;;;;;;;-1.57;67.05;98157.16;5074447;28;20392;-65
2022/01/21 04:24:46;;;;;;;39.15;18.17;;;;;;;-1.53;66.85;98173.56;5055589;28;20499;-66
2022/01/21 04:27:12;;;;;;;34.53;16.35;;;;;;;-1.50;66.13;98162.91;5073523;28;20185;-66
2022/01/21 04:29:38;;;;;;;35.33;17.38;;;;;;;-1.57;66.09;98157.16;5074119;28;20024;-67
2022/01/21 04:32:04;;;;;;;35.25;16.98;;;;;;;-1.67;66.61;98154.25;5074041;28;20032;-66
2022/01/21 04:34:30;;;;;;;42.17;18.60;;;;;;;-1.56;67.00;98169.38;5073472;28;20055;-67
2022/01/21 04:36:55;;;;;;;41.22;17.90;;;;;;;-1.56;66.30;98176.38;5071926;28;20464;-66
2022/01/21 04:39:28;;;;;;;44.22;19.38;;;;;;;-1.63;66.75;98168.88;5073836;28;20488;-66
2022/01/21 04:47:17;;;;;;;41.50;18.90;;;;;;;-1.61;66.22;98176.63;5073714;28;20024;-67
2022/01/21 04:47:23;;;;;;;42.70;19.42;;;;;;;-1.50;65.92;98168.16;5072721;28;19932;-70
2022/01/21 04:49:50;;;;;;;42.42;19.50;;;;;;;-1.79;65.36;98126.06;5071791;28;20020;-68
2022/01/21 04:52:15;;;;;;;42.75;20.27;;;;;;;-1.60;66.11;98176.56;5072919;28;20122;-68
2022/01/21 04:54:41;;;;;;;45.50;20.20;;;;;;;-1.63;65.75;98173.25;5072903;28;20047;-68
2022/01/21 04:57:07;;;;;;;44.13;20.83;;;;;;;-1.71;66.50;98171.06;5072881;28;20032;-68
2022/01/21 04:59:33;;;;;;;43.80;19.67;;;;;;;-1.71;66.17;98170.22;5073220;28;20035;-70
2022/01/21 05:01:59;;;;;;;42.92;19.67;;;;;;;-1.70;66.41;98167.50;5073144;28;20040;-68
2022/01/21 05:04:25;;;;;;;38.45;17.60;;;;;;;-1.65;66.03;98172.50;5073005;28;20048;-69
2022/01/21 05:06:52;;;;;;;48.55;20.60;;;;;;;-1.69;65.81;98156.06;5072295;28;20036;-67
2022/01/21 05:09:18;;;;;;;45.35;19.50;;;;;;;-1.67;66.31;98164.72;5072839;28;20028;-70
2022/01/21 05:11:46;;;;;;;47.22;20.45;;;;;;;-1.74;66.38;98168.63;5072840;28;20753;-68
2022/01/21 05:14:22;;;;;;;48.75;20.80;;;;;;;-1.73;66.34;98162.44;5072120;28;20029;-69
2022/01/21 05:16:50;;;;;;;45.70;20.08;;;;;;;-1.68;66.31;98164.81;5072736;28;20040;-67
2022/01/21 05:19:18;;;;;;;46.08;20.65;;;;;;;-1.75;66.36;98156.44;5073037;28;20028;-67
2022/01/21 05:21:48;;;;;;;45.60;20.45;;;;;;;-1.58;65.54;98155.47;5073099;28;20179;-67
2022/01/21 05:24:16;;;;;;;47.53;20.92;;;;;;;-1.69;66.13;98147.38;5072514;28;20028;-67
2022/01/21 05:26:52;;;;;;;45.85;20.60;;;;;;;-1.82;65.51;98115.75;5072677;28;20044;-68
2022/01/21 05:29:18;;;;;;;41.20;18.23;;;;;;;-1.74;65.53;98142.38;5073193;28;20033;-68
2022/01/21 05:31:44;;;;;;;44.85;20.77;;;;;;;-1.78;65.64;98149.59;5072112;28;20029;-68
2022/01/21 05:34:09;;;;;;;50.97;22.73;;;;;;;-1.89;66.18;98147.59;5071955;28;20028;-68
2022/01/21 05:36:37;;;;;;;51.42;22.65;;;;;;;-1.99;66.10;98125.41;5070752;28;20029;-66
2022/01/21 05:39:03;;;;;;;51.67;22.27;;;;;;;-1.93;66.24;98139.97;5072257;28;20032;-67
2022/01/21 05:41:29;;;;;;;49.28;21.38;;;;;;;-1.90;66.13;98142.41;5071510;28;20036;-69
2022/01/21 05:44:02;;;;;;;53.22;23.13;;;;;;;-1.85;66.59;98140.38;5071390;28;20085;-67
2022/01/21 05:46:54;;;;;;;46.75;22.00;;;;;;;-1.85;66.22;98143.00;5072224;28;20036;-66
2022/01/21 05:49:15;;;;;;;;;;;;;;;-1.51;64.76;98140.22;5072419;28;20128;-67
2022/01/21 05:51:41;;;;;;;49.83;20.15;;;;;;;-1.78;65.48;98127.75;5071763;28;20524;-68
2022/01/21 05:54:08;;;;;;;50.92;20.90;;;;;;;-1.78;64.50;98122.50;5070207;28;20099;-67
2022/01/21 05:56:34;;;;;;;52.53;21.33;;;;;;;-2.10;65.42;98114.69;5071519;28;20436;-67
2022/01/21 05:59:00;;;;;;;49.25;21.85;;;;;;;-2.12;66.00;98124.44;5071419;28;20036;-67
2022/01/21 06:01:27;;;;;;;49.88;21.08;;;;;;;-2.21;66.04;98103.03;5071728;28;20025;-67
2022/01/21 06:03:52;;;;;;;48.35;22.00;;;;;;;-2.14;66.14;98116.63;5071690;28;20048;-68
2022/01/21 06:06:18;;;;;;;45.78;19.38;;;;;;;-2.11;65.95;98111.22;5071759;28;20025;-66
2022/01/21 06:08:43;;;;;;;52.60;21.65;;;;;;;-2.05;65.20;98107.41;5072087;28;20032;-68
2022/01/21 06:11:09;;;;;;;58.20;21.95;;;;;;;-2.26;66.46;98120.78;5070110;28;20109;-67
2022/01/21 06:13:35;;;;;;;53.72;22.20;;;;;;;-2.26;65.94;98107.69;5069923;28;20032;-67
2022/01/21 06:16:01;;;;;;;54.90;22.48;;;;;;;-2.28;65.71;98114.78;5075922;28;20032;-66
2022/01/21 06:18:26;;;;;;;51.97;20.83;;;;;;;-2.20;65.64;98096.00;5072126;28;20030;-67
2022/01/21 06:20:53;;;;;;;56.78;23.98;;;;;;;-2.17;65.38;98087.97;5071729;28;20116;-66
2022/01/21 06:23:19;;;;;;;53.33;22.15;;;;;;;-2.27;65.31;98095.50;5071432;28;20040;-68
2022/01/21 06:25:45;;;;;;;54.00;22.33;;;;;;;-2.17;65.60;98119.44;5072093;28;20078;-68
2022/01/21 06:28:11;;;;;;;61.70;23.13;;;;;;;-2.53;65.74;98068.97;5072255;28;20024;-67
2022/01/21 06:30:37;;;;;;;60.95;23.20;;;;;;;-2.33;65.53;98096.69;5069805;28;20028;-68
2022/01/21 06:33:03;;;;;;;53.78;22.92;;;;;;;-2.33;65.87;98101.09;5069837;28;20025;-68
2022/01/21 06:35:29;;;;;;;48.55;21.85;;;;;;;-2.37;65.60;98104.81;5071611;28;20032;-69
2022/01/21 06:37:54;;;;;;;52.72;22.73;;;;;;;-2.38;65.72;98097.91;5071501;28;20036;-68
2022/01/21 06:40:20;;;;;;;58.20;23.38;;;;;;;-2.43;66.00;98094.66;5070157;28;20094;-66
2022/01/21 06:42:47;;;;;;;54.90;22.73;;;;;;;-2.40;66.10;98095.34;5071387;28;20449;-68
2022/01/21 06:45:13;;;;;;;47.28;18.58;;;;;;;-2.39;65.61;98090.97;5071240;28;20484;-68
2022/01/21 06:47:38;;;;;;;53.47;21.45;;;;;;;-2.31;64.79;98083.50;5069827;28;20047;-65
2022/01/21 06:50:06;;;;;;;49.85;21.77;;;;;;;-2.39;65.30;98088.34;5069716;28;20381;-66
2022/01/21 06:52:32;;;;;;;50.95;22.33;;;;;;;-2.68;64.91;98038.38;5071145;28;20167;-67
2022/01/21 06:54:58;;;;;;;56.67;23.75;;;;;;;-2.52;65.35;98090.78;5071564;28;20048;-67
2022/01/21 06:57:24;;;;;;;55.65;23.38;;;;;;;-2.57;65.80;98092.81;5071135;28;20538;-67
2022/01/21 06:59:49;;;;;;;64.05;24.45;;;;;;;-2.56;65.74;98086.63;5070940;28;20059;-71
2022/01/21 07:02:18;;;;;;;49.78;20.92;;;;;;;-2.43;64.54;98085.03;5086163;28;20032;-68
2022/01/21 07:04:45;;;;;;;54.45;23.92;;;;;;;-2.78;65.20;98054.59;5071300;28;20435;-68
2022/01/21 07:07:10;;;;;;;60.83;24.50;;;;;;;-2.76;65.96;98086.81;5079999;28;20391;-69
2022/01/21 07:09:36;;;;;;;56.55;23.17;;;;;;;-2.74;65.56;98098.03;5091387;28;20028;-69
2022/01/21 07:12:01;;;;;;;45.97;18.98;;;;;;;-2.65;65.94;98106.34;5090928;28;20020;-68
2022/01/21 07:14:27;;;;;;;53.75;22.38;;;;;;;-2.65;65.55;98096.69;5090019;28;20028;-66
2022/01/21 07:16:53;;;;;;;57.38;22.73;;;;;;;-2.54;64.80;98103.13;5091856;28;20418;-67
2022/01/21 07:19:18;;;;;;;57.30;23.85;;;;;;;-2.54;64.47;98114.44;5081082;28;20534;-67
2022/01/21 07:21:44;;;;;;;50.53;22.83;;;;;;;-2.53;64.41;98104.81;5071061;28;20090;-66
2022/01/21 07:24:09;;;;;;;60.03;24.48;;;;;;;-2.74;65.05;98116.38;5071540;28;20380;-70
2022/01/21 07:26:35;;;;;;;58.97;24.52;;;;;;;-2.76;65.85;98110.38;5071194;28;20075;-65
2022/01/21 07:29:01;;;;;;;56.30;23.30;;;;;;;-2.74;64.99;98113.75;5070608;28;20108;-72
2022/01/21 07:31:26;;;;;;;51.03;23.45;;;;;;;-2.67;64.85;98106.41;5073917;28;20036;-69
2022/01/21 07:33:52;;;;;;;54.67;22.67;;;;;;;-2.71;64.99;98118.00;5075593;28;20598;-69
2022/01/21 07:36:18;;;;;;;51.38;24.17;;;;;;;-2.71;65.03;98097.03;5075061;28;20039;-70
2022/01/21 07:38:43;;;;;;;49.03;20.55;;;;;;;-2.63;64.51;98094.00;5074847;28;20028;-66
2022/01/21 07:41:09;;;;;;;49.58;22.80;;;;;;;-2.54;64.17;98103.97;5075368;28;20093;-67
2022/01/21 07:43:35;;;;;;;51.30;22.67;;;;;;;-2.68;64.31;98085.53;5074048;28;20461;-68
2022/01/21 07:46:00;;;;;;;58.40;24.17;;;;;;;-2.70;65.18;98098.72;5073316;28;20052;-68
2022/01/21 07:48:26;;;;;;;43.90;20.85;;;;;;;-2.61;64.73;98084.28;5074914;28;20041;-68
2022/01/21 07:50:51;;;;;;;54.83;23.52;;;;;;;-2.64;64.49;98098.38;5073682;28;20082;-72
2022/01/21 07:53:17;;;;;;;47.33;21.88;;;;;;;-2.57;65.06;98101.53;5075196;28;20131;-67
2022/01/21 07:55:44;;;;;;;46.03;20.15;;;;;;;-2.45;63.78;98103.44;5074294;28;20027;-69
2022/01/21 07:58:11;;;;;;;46.53;21.13;;;;;;;-2.53;64.19;98092.56;5074403;28;20032;-70
2022/01/21 08:00:37;;;;;;;54.03;20.90;;;;;;;-2.56;64.12;98090.13;5073931;28;20060;-70
2022/01/21 08:03:02;;;;;;;42.78;20.35;;;;;;;-2.62;64.73;98093.06;5073065;28;20067;-70
2022/01/21 08:05:32;;;;;;;51.60;21.75;;;;;;;-2.53;64.32;98107.41;5072413;28;20135;-69
2022/01/21 08:07:57;;;;;;;44.30;21.13;;;;;;;-2.55;63.93;98097.03;5072725;28;20128;-65
2022/01/21 08:10:23;;;;;;;52.55;23.52;;;;;;;-2.51;64.18;98102.97;5074309;28;20099;-70
2022/01/21 08:12:48;;;;;;;53.78;22.63;;;;;;;-2.46;63.30;98100.94;5074838;28;20034;-70
2022/01/21 08:15:14;;;;;;;49.25;21.45;;;;;;;-2.55;63.24;98098.81;5075866;28;20041;-68
2022/01/21 08:17:39;;;;;;;42.58;21.00;;;;;;;-2.58;63.70;98091.97;5083935;28;20024;-68
2022/01/21 08:20:06;;;;;;;45.95;21.17;;;;;;;-2.61;63.67;98094.75;5056562;28;20056;-69
2022/01/21 08:22:31;;;;;;;50.90;21.95;;;;;;;-2.68;64.29;98090.75;5091770;28;20024;-69
2022/01/21 08:24:57;;;;;;;46.65;18.33;;;;;;;-2.50;63.69;98092.38;5093197;28;20024;-67
2022/01/21 08:27:23;;;;;;;47.47;21.40;;;;;;;-2.76;64.64;98078.09;5093997;28;20091;-69
2022/01/21 08:29:48;;;;;;;46.75;21.60;;;;;;;-2.60;64.16;98104.31;5094448;28;20042;-69
2022/01/21 08:32:14;;;;;;;45.25;19.98;;;;;;;-2.65;64.06;98088.00;5094503;28;20032;-67
2022/01/21 08:34:40;;;;;;;46.63;21.27;;;;;;;-2.53;64.16;98089.06;5077231;28;20032;-67
2022/01/21 08:37:05;;;;;;;46.83;21.25;;;;;;;-2.42;63.44;98101.59;5073287;28;20453;-69
2022/01/21 08:39:32;;;;;;;45.67;20.80;;;;;;;-2.41;63.22;98087.56;5073496;28;20029;-69
2022/01/21 08:41:57;;;;;;;46.97;19.40;;;;;;;-2.36;62.95;98075.06;5072362;28;20040;-66
2022/01/21 08:44:23;;;;;;;44.63;19.80;;;;;;;-2.39;63.36;98083.09;5073601;28;20048;-65
2022/01/21 08:46:48;;;;;;;41.65;18.55;;;;;;;-2.41;63.46;98083.19;5073513;28;20068;-70
2022/01/21 08:49:14;;;;;;;43.28;19.52;;;;;;;-2.47;63.33;98068.63;5072349;28;20041;-64
2022/01/21 08:51:49;;;;;;;36.20;13.18;;;;;;;-2.41;62.55;98088.41;5070074;28;20039;-65
2022/01/21 08:54:15;;;;;;;41.65;19.35;;;;;;;-2.66;63.42;98068.81;5071974;28;20044;-67
2022/01/21 08:56:42;;;;;;;39.13;18.48;;;;;;;-2.74;63.18;98071.84;5073424;28;20423;-64
2022/01/21 08:59:08;;;;;;;40.72;18.67;;;;;;;-2.85;64.48;98079.44;5072957;28;20495;-65
2022/01/21 09:01:33;;;;;;;41.33;19.38;;;;;;;-2.98;63.79;98037.38;5072944;28;20033;-65
2022/01/21 09:03:59;;;;;;;39.78;16.60;;;;;;;-2.60;63.56;98062.38;5073451;28;20028;-66
2022/01/21 09:06:28;;;;;;;41.22;17.20;;;;;;;-2.46;61.79;98059.00;5073099;28;20029;-66
2022/01/21 09:08:55;;;;;;;40.72;18.40;;;;;;;-2.65;62.42;98064.44;5072996;28;20024;-65
2022/01/21 09:11:20;;;;;;;39.28;18.52;;;;;;;-2.87;63.31;98065.59;5073283;28;20056;-65
2022/01/21 09:13:46;;;;;;;39.22;17.70;;;;;;;-2.85;63.34;98057.63;5072855;28;20064;-65
2022/01/21 09:16:12;;;;;;;36.63;17.17;;;;;;;-2.91;63.06;98066.66;5075713;28;20028;-64
2022/01/21 09:19:11;;;;;;;38.88;17.33;;;;;;;-2.94;63.14;98070.31;5089443;28;20036;-66
2022/01/21 09:21:34;;;;;;;36.70;17.60;;;;;;;-3.00;63.22;98049.69;5083677;28;20037;-64
2022/01/21 09:23:59;;;;;;;31.40;14.02;;;;;;;-2.87;62.84;98065.59;5072428;28;20032;-66
2022/01/21 09:26:26;;;;;;;25.70;10.75;;;;;;;-2.78;62.89;98059.84;5072829;28;20028;-66
2022/01/21 09:28:52;;;;;;;36.50;17.15;;;;;;;-2.94;63.38;98048.50;5073500;28;20055;-66
2022/01/21 09:31:18;;;;;;;34.92;17.65;;;;;;;-3.13;63.89;98036.41;5072389;28;20032;-67
2022/01/21 09:33:44;;;;;;;41.80;17.83;;;;;;;-2.92;63.47;98036.16;5077962;28;20107;-65
2022/01/21 09:36:10;;;;;;;36.67;16.05;;;;;;;-2.80;63.16;98059.09;5093190;28;20114;-64
2022/01/21 09:38:37;;;;;;;37.60;17.17;;;;;;;-2.79;62.89;98028.47;5093389;28;20038;-65
2022/01/21 09:41:05;;;;;;;30.67;13.05;;;;;;;-2.65;62.76;98033.00;5092657;28;20028;-65
2022/01/21 09:43:33;;;;;;;34.00;13.55;;;;;;;-2.70;62.65;98028.00;5092228;28;20055;-65
2022/01/21 09:46:05;;;;;;;39.15;16.90;;;;;;;-2.76;62.53;98021.31;5092864;28;20040;-64
2022/01/21 09:48:35;;;;;;;37.55;16.45;;;;;;;-2.81;62.79;98027.72;5092983;28;20028;-66
2022/01/21 09:51:02;;;;;;;32.78;14.55;;;;;;;-2.97;62.99;98023.34;5092246;28;20027;-65
2022/01/21 09:53:33;;;;;;;32.10;14.70;;;;;;;-2.98;63.00;98012.94;5092128;28;20444;-66
2022/01/21 09:56:01;;;;;;;32.13;14.68;;;;;;;-2.99;63.02;98032.19;5092723;28;20042;-66
2022/01/21 09:58:28;;;;;;;34.25;15.40;;;;;;;-3.20;63.02;97991.41;5093008;28;20035;-64
2022/01/21 10:00:57;;;;;;;32.40;14.60;;;;;;;-2.92;62.70;98010.84;5092601;28;20044;-68
2022/01/21 10:03:23;;;;;;;35.75;16.52;;;;;;;-2.94;63.18;98011.84;5092131;28;20039;-69
2022/01/21 10:05:49;;;;;;;33.70;15.02;;;;;;;-3.05;63.20;97984.47;5092574;28;20032;-62
2022/01/21 10:08:15;;;;;;;32.10;14.20;;;;;;;-2.80;62.33;98011.06;5092704;28;20451;-69
2022/01/21 10:10:43;;;;;;;35.65;15.63;;;;;;;-2.90;63.19;98014.22;5080957;28;20032;-71
2022/01/21 10:13:10;;;;;;;34.17;16.20;;;;;;;-2.92;62.70;98002.13;5071458;28;20480;-68
2022/01/21 10:15:37;;;;;;;32.00;13.70;;;;;;;-3.00;62.90;98006.94;5071857;28;20142;-69
2022/01/21 10:18:03;;;;;;;32.20;15.10;;;;;;;-3.01;63.33;98005.25;5071064;28;20032;-70
2022/01/21 10:20:28;;;;;;;34.22;15.48;;;;;;;-3.08;63.65;97994.25;5070248;28;20370;-68
2022/01/21 10:23:09;;;;;;;35.42;16.33;;;;;;;-2.93;63.97;98008.28;5067810;28;20368;-69
2022/01/21 10:25:37;;;;;;;29.95;14.90;;;;;;;-2.85;63.58;97994.78;5074368;28;20111;-69
2022/01/21 10:28:17;;;;;;;30.88;12.85;;;;;;;-2.65;63.45;98001.56;5086368;28;20103;-67
2022/01/21 10:30:44;;;;;;;32.25;14.90;;;;;;;-2.92;62.50;97962.84;5075243;28;20028;-71
2022/01/21 10:33:22;;;;;;;31.67;14.52;;;;;;;-2.81;63.48;97988.44;5091527;28;20448;-69
2022/01/21 10:35:50;;;;;;;31.42;14.68;;;;;;;-2.81;63.11;97989.28;5091233;28;20085;-69
2022/01/21 10:38:17;;;;;;;33.92;13.90;;;;;;;-2.78;63.79;97985.63;5091496;28;20413;-69
2022/01/21 10:40:44;;;;;;;35.33;15.30;;;;;;;-2.84;63.46;97984.22;5091550;28;20066;-67
2022/01/21 10:43:12;;;;;;;28.90;14.60;;;;;;;-2.73;63.11;97978.41;5085577;28;20043;-69
2022/01/21 10:45:56;;;;;;;33.70;15.00;;;;;;;-2.69;63.74;97974.66;5071358;28;20174;-69
2022/01/21 10:48:21;;;;;;;29.67;14.70;;;;;;;-2.75;63.52;97965.38;5071391;28;20051;-70
2022/01/21 10:51:20;;;;;;;37.53;14.90;;;;;;;-2.71;63.73;97971.28;5070922;28;20036;-68
2022/01/21 10:53:46;;;;;;;25.85;14.18;;;;;;;-2.81;63.38;97976.19;5071177;28;20427;-68
2022/01/21 10:56:17;;;;;;;32.90;15.00;;;;;;;-3.04;63.44;97949.50;5070693;28;20045;-68
2022/01/21 10:58:50;;;;;;;29.75;14.23;;;;;;;-2.93;63.06;97966.38;5071125;28;20500;-69
2022/01/21 11:01:21;;;;;;;34.85;14.82;;;;;;;-3.07;63.38;97954.91;5071172;28;20107;-69
2022/01/21 11:04:01;;;;;;;28.13;12.38;;;;;;;-3.03;62.81;97974.75;5069594;28;20028;-69
2022/01/21 11:06:38;;;;;;;26.50;13.93;;;;;;;-3.27;63.09;97958.59;5070891;28;20039;-69
2022/01/21 11:09:24;;;;;;;26.02;10.50;;;;;;;-3.10;62.70;97972.56;5071222;28;20078;-68
2022/01/21 11:12:10;;;;;;;31.88;14.57;;;;;;;-3.36;64.08;97970.44;5070936;28;20426;-69
2022/01/21 11:14:37;;;;;;;28.50;13.68;;;;;;;-3.30;63.77;97976.28;5071496;28;20040;-66
2022/01/21 11:17:14;;;;;;;36.42;14.98;;;;;;;-3.19;63.66;97964.28;5069687;28;20119;-67
2022/01/21 11:19:59;;;;;;;30.85;14.50;;;;;;;-3.04;62.34;97946.91;5070289;28;20023;-69
2022/01/21 11:22:25;;;;;;;27.47;12.40;;;;;;;-3.06;62.53;97956.59;5071159;28;20488;-69
2022/01/21 11:24:50;;;;;;;28.38;12.15;;;;;;;-2.95;62.71;97958.63;5069624;28;20027;-69
2022/01/21 11:27:17;;;;;;;33.47;15.15;;;;;;;-2.91;62.24;97962.78;5070722;28;20120;-70
2022/01/21 11:29:45;;;;;;;28.95;13.57;;;;;;;-2.82;62.01;97945.69;5070979;28;20039;-70
2022/01/21 11:32:12;;;;;;;28.25;13.57;;;;;;;-2.92;62.10;97945.38;5071391;28;20050;-69
2022/01/21 11:34:38;;;;;;;31.75;14.38;;;;;;;-2.94;62.66;97967.31;5069949;28;20028;-68
2022/01/21 11:37:06;;;;;;;29.90;14.27;;;;;;;-2.84;62.48;97942.31;5070373;28;20039;-66
2022/01/21 11:39:33;;;;;;;33.63;14.50;;;;;;;-2.92;61.79;97947.13;5070843;28;20032;-69
2022/01/21 11:42:00;;;;;;;34.55;14.35;;;;;;;-2.99;62.50;97940.56;5071251;28;20025;-69
2022/01/21 11:44:28;;;;;;;32.10;13.38;;;;;;;-2.95;62.18;97957.78;5070724;28;20040;-68
2022/01/21 11:47:13;;;;;;;30.20;13.90;;;;;;;-2.99;62.83;97951.03;5070498;28;20104;-69
2022/01/21 11:49:53;;;;;;;28.63;13.32;;;;;;;-2.96;62.89;97964.81;5070732;28;20143;-68
2022/01/21 11:52:19;;;;;;;30.52;14.43;;;;;;;-2.96;63.12;97972.66;5071133;28;20036;-69
2022/01/21 11:54:46;;;;;;;28.92;13.65;;;;;;;-2.96;63.25;97950.84;5070944;28;20376;-69
2022/01/21 11:57:13;;;;;;;24.58;11.85;;;;;;;-2.89;63.25;97962.69;5070509;28;20141;-69
2022/01/21 12:02:31;;;;;;;26.27;11.30;;;;;;;-2.94;62.74;97946.38;5071249;28;20046;-69